createdAt,value
2022-08-10T00:00:12.839Z,95.7
2022-08-10T00:02:12.661Z,94.5
2022-08-10T00:04:21.193Z,95
2022-08-10T00:06:13.388Z,94.4
2022-08-10T00:08:13.271Z,94.4
2022-08-10T00:10:15.494Z,94.4
2022-08-10T00:12:13.777Z,94.4
2022-08-10T00:14:13.978Z,94.8
2022-08-10T00:16:14.198Z,95.2
2022-08-10T00:18:35.169Z,95.9
2022-08-10T00:20:15.389Z,94.2
2022-08-10T00:22:17.059Z,95.2
2022-08-10T00:24:15.411Z,94.5
2022-08-10T00:26:15.168Z,95.5
2022-08-10T00:28:15.364Z,95.5
2022-08-10T00:30:15.619Z,94.2
2022-08-10T00:32:15.850Z,94.2
2022-08-10T00:34:15.959Z,94.2
2022-08-10T00:36:16.145Z,95.2
2022-08-10T00:38:16.447Z,94.1
2022-08-10T00:40:16.509Z,93.4
2022-08-10T00:42:16.756Z,93.8
2022-08-10T00:44:16.972Z,93.8
2022-08-10T00:46:17.106Z,93.8
2022-08-10T00:48:17.235Z,95
2022-08-10T00:50:17.674Z,95
2022-08-10T00:52:18.612Z,94.5
2022-08-10T00:54:24.731Z,93.9
2022-08-10T00:57:12.244Z,94.5
2022-08-10T00:58:18.333Z,93
2022-08-10T01:00:18.486Z,93.7
2022-08-10T01:02:18.925Z,94.3
2022-08-10T01:04:36.283Z,94.6
2022-08-10T01:06:38.015Z,93.4
2022-08-10T01:08:28.232Z,93.4
2022-08-10T01:10:33.178Z,94.1
2022-08-10T01:12:40.476Z,93
2022-08-10T01:14:28.282Z,94.5
2022-08-10T01:16:27.191Z,95.3
2022-08-10T01:18:27.981Z,94.5
2022-08-10T01:20:31.083Z,94.5
2022-08-10T01:22:37.116Z,93.7
2022-08-10T01:24:38.493Z,94.3
2022-08-10T01:26:33.187Z,93.4
2022-08-10T01:28:37.145Z,93.4
2022-08-10T01:30:23.572Z,95.4
2022-08-10T01:32:30.660Z,93.8
2022-08-10T01:34:26.426Z,94.6
2022-08-10T01:36:31.878Z,95.5
2022-08-10T01:38:27.728Z,94.8
2022-08-10T01:40:26.516Z,95.3
2022-08-10T01:42:24.307Z,95.3
2022-08-10T01:44:29.227Z,94.9
2022-08-10T01:46:24.584Z,94.9
2022-08-10T01:48:27.041Z,94.3
2022-08-10T01:50:29.171Z,94.3
2022-08-10T01:52:26.713Z,95.4
2022-08-10T01:54:26.291Z,93.3
2022-08-10T01:56:27.615Z,95.4
2022-08-10T01:58:26.065Z,93.2
2022-08-10T02:00:26.266Z,93.9
2022-08-10T02:02:26.275Z,94.1
2022-08-10T02:04:27.014Z,93.5
2022-08-10T02:06:28.085Z,94.4
2022-08-10T02:08:27.957Z,94.2
2022-08-10T02:10:26.504Z,93.6
2022-08-10T02:12:30.570Z,93.6
2022-08-10T02:14:33.342Z,93.3
2022-08-10T02:16:26.856Z,92.8
2022-08-10T02:18:28.475Z,92.8
2022-08-10T02:20:31.839Z,93.5
2022-08-10T02:22:45.635Z,93.5
2022-08-10T02:24:27.895Z,93.7
2022-08-10T02:26:27.704Z,93.7
2022-08-10T02:28:31.087Z,93.7
2022-08-10T02:30:28.002Z,94.1
2022-08-10T02:32:36.296Z,94.9
2022-08-10T02:34:27.996Z,94.1
2022-08-10T02:36:33.368Z,92.9
2022-08-10T02:38:59.062Z,92.9
2022-08-10T02:45:10.988Z,92.9
2022-08-10T02:45:20.984Z,94.9
2022-08-10T02:45:23.508Z,93.9
2022-08-10T02:46:35.613Z,92.6
2022-08-10T02:48:38.526Z,92.6
2022-08-10T02:50:34.270Z,92.6
2022-08-10T02:52:37.995Z,93.3
2022-08-10T02:54:35.294Z,92.8
2022-08-10T02:56:34.922Z,92.9
2022-08-10T02:58:43.049Z,92
2022-08-10T03:00:31.814Z,93
2022-08-10T03:02:34.265Z,91.3
2022-08-10T03:04:57.258Z,91.5
2022-08-10T03:06:36.981Z,91.5
2022-08-10T03:08:35.545Z,89.8
2022-08-10T03:10:39.441Z,87.9
2022-08-10T03:12:37.652Z,87.3
2022-08-10T03:14:33.347Z,86.9
2022-08-10T03:16:33.535Z,86.9
2022-08-10T03:18:33.606Z,86.3
2022-08-10T03:20:39.645Z,86.5
2022-08-10T03:22:35.296Z,85.6
2022-08-10T03:24:34.284Z,85.6
2022-08-10T03:26:34.012Z,86.6
2022-08-10T03:28:34.491Z,85.7
2022-08-10T03:30:34.774Z,87
2022-08-10T03:32:34.807Z,86.1
2022-08-10T03:34:35.668Z,86.1
2022-08-10T03:36:44.088Z,85.5
2022-08-10T03:38:35.111Z,85.5
2022-08-10T03:40:46.210Z,85.8
2022-08-10T03:42:37.721Z,85.8
2022-08-10T03:44:36.755Z,85.8
2022-08-10T03:46:39.904Z,85
2022-08-10T03:48:47.110Z,84.2
2022-08-10T03:50:51.064Z,83.7
2022-08-10T03:52:37.205Z,83.7
2022-08-10T03:54:37.571Z,83.7
2022-08-10T03:56:39.637Z,83.2
2022-08-10T03:58:38.043Z,83
2022-08-10T04:00:38.634Z,83
2022-08-10T04:02:45.457Z,82.3
2022-08-10T04:04:39.417Z,82.9
2022-08-10T04:06:39.827Z,81.8
2022-08-10T04:08:41.655Z,81.8
2022-08-10T04:10:40.691Z,81.9
2022-08-10T04:12:41.166Z,81.1
2022-08-10T04:14:51.125Z,81.1
2022-08-10T04:16:42.162Z,81.1
2022-08-10T04:18:42.799Z,81.1
2022-08-10T04:20:48.030Z,79.8
2022-08-10T04:22:46.247Z,80.5
2022-08-10T04:24:46.433Z,79.4
2022-08-10T04:26:45.643Z,80.1
2022-08-10T04:28:45.966Z,80.7
2022-08-10T04:30:47.456Z,79.2
2022-08-10T04:32:51.354Z,79.1
2022-08-10T04:34:48.342Z,80.6
2022-08-10T04:36:50.017Z,79.9
2022-08-10T04:38:49.690Z,79.4
2022-08-10T04:40:49.195Z,79.6
2022-08-10T04:42:50.069Z,79.6
2022-08-10T04:44:50.609Z,79.6
2022-08-10T04:46:58.089Z,79.6
2022-08-10T04:49:01.625Z,77.7
2022-08-10T04:50:52.218Z,78.4
2022-08-10T04:52:52.774Z,78.4
2022-08-10T04:54:53.089Z,77.8
2022-08-10T04:56:53.726Z,77.8
2022-08-10T04:58:54.273Z,77.1
2022-08-10T05:00:55.032Z,77.3
2022-08-10T05:02:55.492Z,76.6
2022-08-10T05:04:56.140Z,76.6
2022-08-10T05:06:56.728Z,76
2022-08-10T05:08:57.385Z,76
2022-08-10T05:10:57.913Z,76.6
2022-08-10T05:12:58.498Z,75.9
2022-08-10T05:14:59.357Z,76.7
2022-08-10T05:16:59.773Z,75.1
2022-08-10T05:19:00.263Z,75
2022-08-10T05:21:00.914Z,75.6
2022-08-10T05:23:01.548Z,74.2
2022-08-10T05:25:02.700Z,74.2
2022-08-10T05:27:10.150Z,74.9
2022-08-10T05:29:03.539Z,74.9
2022-08-10T05:31:04.322Z,74.2
2022-08-10T05:33:08.675Z,74.2
2022-08-10T05:35:05.996Z,74.8
2022-08-10T05:37:06.189Z,73.6
2022-08-10T05:39:06.969Z,73.1
2022-08-10T05:41:07.218Z,72
2022-08-10T05:43:08.027Z,72.4
2022-08-10T05:45:18.583Z,71.6
2022-08-10T05:47:12.677Z,71.6
2022-08-10T05:49:09.652Z,71.6
2022-08-10T05:51:10.524Z,71.4
2022-08-10T05:53:58.865Z,72.8
2022-08-10T05:55:11.989Z,69.8
2022-08-10T05:57:14.141Z,69.7
2022-08-10T05:59:14.675Z,70.9
2022-08-10T06:01:16.039Z,70.4
2022-08-10T06:03:23.992Z,69.5
2022-08-10T06:05:18.453Z,68.4
2022-08-10T06:07:21.627Z,68.3
2022-08-10T06:09:16.993Z,68.3
2022-08-10T06:12:25.491Z,68.6
2022-08-10T06:13:27.117Z,68.6
2022-08-10T06:15:21.901Z,68.6
2022-08-10T06:17:19.142Z,66.9
2022-08-10T06:19:20.015Z,66.2
2022-08-10T06:21:20.904Z,65.2
2022-08-10T06:23:21.178Z,66.8
2022-08-10T06:26:09.059Z,66.1
2022-08-10T06:27:21.745Z,65.2
2022-08-10T06:29:23.522Z,65.9
2022-08-10T06:31:24.559Z,65.8
2022-08-10T06:33:25.095Z,65.4
2022-08-10T06:35:27.150Z,64.8
2022-08-10T06:37:27.532Z,64.2
2022-08-10T06:39:34.542Z,63.9
2022-08-10T06:42:14.918Z,64
2022-08-10T06:43:28.307Z,64
2022-08-10T06:45:30.961Z,64
2022-08-10T06:47:35.019Z,62.6
2022-08-10T06:49:29.465Z,63.4
2022-08-10T06:51:32.845Z,62.2
2022-08-10T06:53:52.081Z,59.5
2022-08-10T06:55:49.801Z,61.2
2022-08-10T06:57:33.819Z,59.7
2022-08-10T06:59:37.027Z,63.1
2022-08-10T07:01:34.875Z,61.4
2022-08-10T07:03:37.727Z,62.3
2022-08-10T07:05:37.186Z,61.9
2022-08-10T07:07:36.631Z,60.8
2022-08-10T07:09:36.864Z,59.5
2022-08-10T07:11:37.104Z,59.5
2022-08-10T07:14:15.858Z,59.7
2022-08-10T07:16:00.135Z,58.8
2022-08-10T07:17:39.725Z,58.8
2022-08-10T07:19:50.534Z,58.3
2022-08-10T07:21:40.782Z,59.1
2022-08-10T07:23:59.719Z,59
2022-08-10T07:25:41.492Z,57.8
2022-08-10T07:28:00.539Z,57.2
2022-08-10T07:29:54.483Z,56.6
2022-08-10T07:31:57.018Z,55.7
2022-08-10T07:33:42.707Z,55.7
2022-08-10T07:35:43.853Z,56.5
2022-08-10T07:37:44.069Z,56.3
2022-08-10T07:39:58.154Z,55.7
2022-08-10T07:41:46.552Z,55.7
2022-08-10T07:43:48.778Z,55.7
2022-08-10T07:45:45.889Z,55.7
2022-08-10T07:47:53.164Z,53.8
2022-08-10T07:49:48.749Z,54.6
2022-08-10T07:51:47.393Z,53.7
2022-08-10T07:53:51.781Z,53.7
2022-08-10T07:56:05.895Z,53.7
2022-08-10T07:57:52.048Z,54.4
2022-08-10T07:59:55.085Z,54.4
2022-08-10T08:01:52.731Z,55.3
2022-08-10T08:04:10.919Z,54.3
2022-08-10T08:05:58.306Z,53
2022-08-10T08:07:51.562Z,51.9
2022-08-10T08:09:58.332Z,51.9
2022-08-10T08:11:52.291Z,51.8
2022-08-10T08:13:53.738Z,52.9
2022-08-10T08:16:19.449Z,52.1
2022-08-10T08:18:00.577Z,52.1
2022-08-10T08:19:55.657Z,52.1
2022-08-10T08:24:09.124Z,50.8
2022-08-10T08:24:09.203Z,51.4
2022-08-10T08:25:56.107Z,49.9
2022-08-10T08:27:57.124Z,48.7
2022-08-10T08:29:56.039Z,49.1
2022-08-10T08:32:01.701Z,49.7
2022-08-10T08:33:57.332Z,49.4
2022-08-10T08:35:59.248Z,49.4
2022-08-10T08:38:33.644Z,50.3
2022-08-10T08:39:58.043Z,50.7
2022-08-10T08:42:14.778Z,52.4
2022-08-10T08:44:08.659Z,53.9
2022-08-10T08:46:25.871Z,52.9
2022-08-10T08:48:12.608Z,50.6
2022-08-10T08:50:10.639Z,52.7
2022-08-10T08:52:12.532Z,52.2
2022-08-10T08:54:15.102Z,50
2022-08-10T08:56:08.232Z,50.2
2022-08-10T08:58:16.375Z,49.7
2022-08-10T09:00:10.148Z,49.1
2022-08-10T09:02:15.045Z,48.3
2022-08-10T09:04:23.138Z,48.6
2022-08-10T09:06:15.375Z,48.6
2022-08-10T09:08:21.707Z,47.7
2022-08-10T09:10:16.807Z,49
2022-08-10T09:12:19.241Z,50.4
2022-08-10T09:14:14.326Z,52.3
2022-08-10T09:16:21.630Z,51.4
2022-08-10T09:18:15.592Z,51.4
2022-08-10T09:20:14.768Z,49.1
2022-08-10T09:22:18.728Z,49.1
2022-08-10T09:24:20.219Z,47.7
2022-08-10T09:26:14.210Z,45.5
2022-08-10T09:28:16.218Z,48.1
2022-08-10T09:30:12.750Z,48.1
2022-08-10T09:36:13.291Z,46.7
2022-08-10T09:36:27.000Z,48.2
2022-08-10T09:36:32.369Z,49.4
2022-08-10T09:38:23.002Z,52.7
2022-08-10T09:40:59.955Z,54.3
2022-08-10T09:42:24.239Z,54.9
2022-08-10T09:44:27.010Z,53.2
2022-08-10T09:46:27.529Z,51.2
2022-08-10T09:48:24.338Z,50.2
2022-08-10T09:50:23.920Z,50.2
2022-08-10T09:52:27.974Z,49.6
2022-08-10T09:54:35.996Z,51
2022-08-10T09:56:28.791Z,52.7
2022-08-10T09:58:33.607Z,51.9
2022-08-10T10:00:20.280Z,49.9
2022-08-10T10:02:25.291Z,49.9
2022-08-10T10:04:25.469Z,50.5
2022-08-10T10:06:27.959Z,49.9
2022-08-10T10:08:27.477Z,51.2
2022-08-10T10:10:23.530Z,52.1
2022-08-10T10:12:28.936Z,51.4
2022-08-10T10:14:30.538Z,51.4
2022-08-10T10:16:32.467Z,50.7
2022-08-10T10:18:32.525Z,50.2
2022-08-10T10:20:30.260Z,50.2
2022-08-10T10:22:45.612Z,50.2
2022-08-10T10:24:34.755Z,51.5
2022-08-10T10:26:31.443Z,50.7
2022-08-10T10:29:11.368Z,49.8
2022-08-10T10:30:25.496Z,51.8
2022-08-10T10:32:37.666Z,51.2
2022-08-10T10:34:34.731Z,49.3
2022-08-10T10:36:27.359Z,50.6
2022-08-10T10:38:32.592Z,51.5
2022-08-10T10:40:32.083Z,51
2022-08-10T10:42:49.688Z,51
2022-08-10T10:44:41.947Z,50.2
2022-08-10T10:46:46.785Z,50.2
2022-08-10T10:48:36.433Z,51.6
2022-08-10T10:50:38.370Z,50.1
2022-08-10T10:52:48.278Z,48.6
2022-08-10T10:54:40.757Z,48.7
2022-08-10T10:56:38.725Z,48.7
2022-08-10T10:58:37.891Z,49.4
2022-08-10T11:00:38.613Z,48.6
2022-08-10T11:02:43.153Z,47.3
2022-08-10T11:04:41.978Z,47.8
2022-08-10T11:06:45.962Z,48.8
2022-08-10T11:08:39.986Z,49.4
2022-08-10T11:10:46.202Z,49.4
2022-08-10T11:12:46.786Z,49.4
2022-08-10T11:14:40.511Z,49.4
2022-08-10T11:16:40.335Z,50.7
2022-08-10T11:18:50.023Z,46.6
2022-08-10T11:20:43.186Z,47.3
2022-08-10T11:22:43.442Z,47.9
2022-08-10T11:24:49.738Z,48.2
2022-08-10T11:26:45.950Z,49.1
2022-08-10T11:28:44.111Z,49.7
2022-08-10T11:30:45.100Z,50.2
2022-08-10T11:33:02.793Z,49.1
2022-08-10T11:35:10.250Z,48.3
2022-08-10T11:36:46.222Z,48.3
2022-08-10T11:39:12.980Z,49.8
2022-08-10T11:40:48.819Z,48.4
2022-08-10T11:42:43.859Z,48.7
2022-08-10T11:44:48.808Z,47.7
2022-08-10T11:46:50.100Z,48.2
2022-08-10T11:48:53.755Z,48.2
2022-08-10T11:50:47.300Z,47.4
2022-08-10T11:52:53.180Z,46.5
2022-08-10T11:54:50.844Z,46.9
2022-08-10T11:56:47.893Z,47
2022-08-10T11:58:44.488Z,47
2022-08-10T12:00:44.441Z,47
2022-08-10T12:02:48.745Z,48
2022-08-10T12:04:49.634Z,51
2022-08-10T12:06:56.439Z,51.8
2022-08-10T12:10:09.196Z,51.8
2022-08-10T12:10:48.642Z,50.6
2022-08-10T12:12:54.617Z,50.6
2022-08-10T12:14:55.148Z,51.7
2022-08-10T12:16:51.832Z,51.7
2022-08-10T12:18:53.115Z,50.9
2022-08-10T12:20:58.127Z,50.9
2022-08-10T12:22:54.950Z,51.8
2022-08-10T12:24:56.765Z,51.9
2022-08-10T12:26:57.302Z,52.9
2022-08-10T12:28:59.519Z,52.9
2022-08-10T12:30:58.479Z,52.9
2022-08-10T12:32:59.823Z,51.1
2022-08-10T12:35:00.486Z,51.6
2022-08-10T12:37:03.707Z,50.9
2022-08-10T12:39:04.741Z,50.4
2022-08-10T12:40:58.673Z,50.4
2022-08-10T12:43:13.429Z,52.2
2022-08-10T12:45:01.349Z,51.1
2022-08-10T12:47:00.991Z,50.4
2022-08-10T12:49:11.232Z,49.7
2022-08-10T12:51:02.651Z,48.9
2022-08-10T12:53:06.861Z,48.9
2022-08-10T12:55:01.980Z,49.5
2022-08-10T12:57:02.805Z,50.3
2022-08-10T12:59:01.659Z,50.6
2022-08-10T13:01:17.966Z,48.8
2022-08-10T13:03:01.043Z,48.2
2022-08-10T13:05:03.747Z,50.3
2022-08-10T13:07:02.348Z,52.1
2022-08-10T13:09:01.263Z,52.7
2022-08-10T13:11:04.646Z,52.7
2022-08-10T13:13:02.770Z,53.3
2022-08-10T13:15:45.571Z,53.7
2022-08-10T13:17:06.054Z,54
2022-08-10T13:19:04.930Z,54
2022-08-10T13:21:20.887Z,55.1
2022-08-10T13:23:13.725Z,55.1
2022-08-10T13:25:07.412Z,54.8
2022-08-10T13:27:24.907Z,54.4
2022-08-10T13:29:13.221Z,54.4
2022-08-10T13:31:11.557Z,54.4
2022-08-10T13:33:08.746Z,54.4
2022-08-10T13:35:13.102Z,53.4
2022-08-10T13:37:08.596Z,53.4
2022-08-10T13:39:08.429Z,53.4
2022-08-10T13:41:09.624Z,53.4
2022-08-10T13:43:09.769Z,53
2022-08-10T13:45:11.641Z,52.5
2022-08-10T13:47:12.602Z,51.9
2022-08-10T13:49:10.658Z,50.4
2022-08-10T13:51:13.467Z,50.4
2022-08-10T13:53:15.526Z,51.6
2022-08-10T13:55:15.333Z,52.3
2022-08-10T13:57:13.809Z,53
2022-08-10T13:59:16.291Z,52.4
2022-08-10T14:01:16.836Z,53
2022-08-10T14:03:16.245Z,53
2022-08-10T14:05:14.675Z,52.3
2022-08-10T14:07:16.590Z,53.1
2022-08-10T14:09:15.419Z,53.1
2022-08-10T14:11:17.352Z,52.4
2022-08-10T14:13:18.671Z,51.9
2022-08-10T14:15:19.327Z,51.9
2022-08-10T14:17:20.187Z,51.2
2022-08-10T14:19:20.475Z,53.1
2022-08-10T14:21:17.843Z,52.1
2022-08-10T14:23:18.114Z,52.8
2022-08-10T14:25:18.469Z,52.3
2022-08-10T14:27:21.570Z,52.3
2022-08-10T14:29:22.854Z,52.3
2022-08-10T14:31:23.892Z,54.2
2022-08-10T14:36:21.251Z,53.2
2022-08-10T14:37:29.245Z,53.3
2022-08-10T14:39:25.441Z,53.3
2022-08-10T14:42:01.064Z,54.2
2022-08-10T14:43:28.695Z,52.9
2022-08-10T14:45:27.194Z,53
2022-08-10T14:47:52.496Z,52.8
2022-08-10T14:49:27.367Z,52.8
2022-08-10T14:51:27.905Z,52.8
2022-08-10T14:53:28.734Z,52.8
2022-08-10T14:55:26.278Z,54
2022-08-10T14:58:19.292Z,53.1
2022-08-10T15:00:22.865Z,53.1
2022-08-10T15:02:01.014Z,52.4
2022-08-10T15:04:02.337Z,52.4
2022-08-10T15:05:39.430Z,52.5
2022-08-10T15:07:29.546Z,51.5
2022-08-10T15:09:59.881Z,51.5
2022-08-10T15:12:13.389Z,51.5
2022-08-10T15:13:34.827Z,50.3
2022-08-10T15:15:30.412Z,51.4
2022-08-10T15:17:36.125Z,50
2022-08-10T15:20:02.280Z,50.9
2022-08-10T15:21:43.690Z,50.9
2022-08-10T15:24:05.849Z,50.9
2022-08-10T15:25:38.996Z,50.8
2022-08-10T15:27:53.586Z,50.8
2022-08-10T15:29:34.532Z,51.5
2022-08-10T15:31:34.990Z,51.5
2022-08-10T15:34:02.283Z,52.2
2022-08-10T15:35:35.679Z,51.5
2022-08-10T15:37:47.281Z,50.7
2022-08-10T15:40:24.274Z,50.7
2022-08-10T15:41:58.604Z,51.2
2022-08-10T15:43:44.599Z,51.2
2022-08-10T15:45:37.934Z,51.8
2022-08-10T15:47:46.108Z,51.8
2022-08-10T15:49:47.263Z,51.8
2022-08-10T15:51:54.210Z,51.8
2022-08-10T15:53:49.948Z,52.9
2022-08-10T15:55:46.245Z,52.6
2022-08-10T15:57:45.741Z,52.6
2022-08-10T15:59:44.179Z,52.6
2022-08-10T16:02:03.993Z,52.6
2022-08-10T16:03:45.966Z,53.2
2022-08-10T16:06:00.321Z,53.2
2022-08-10T16:07:56.012Z,53.2
2022-08-10T16:10:24.091Z,53.2
2022-08-10T16:11:46.167Z,53.2
2022-08-10T16:13:59.835Z,54
2022-08-10T16:15:50.121Z,54.5
2022-08-10T16:17:54.573Z,54.5
2022-08-10T16:19:51.565Z,54.5
2022-08-10T16:21:44.478Z,54.5
2022-08-10T16:23:59.228Z,54.5
2022-08-10T16:25:52.282Z,54.7
2022-08-10T16:27:46.143Z,55.1
2022-08-10T16:29:56.763Z,55.1
2022-08-10T16:31:50.998Z,55.1
2022-08-10T16:33:54.504Z,55.6
2022-08-10T16:35:53.142Z,55.3
2022-08-10T16:37:57.679Z,55.3
2022-08-10T16:39:57.012Z,55.3
2022-08-10T16:41:52.161Z,55.3
2022-08-10T16:43:49.424Z,55.3
2022-08-10T16:45:53.271Z,55.1
2022-08-10T16:47:52.903Z,55.1
2022-08-10T16:49:52.031Z,55.6
2022-08-10T16:51:51.611Z,55.6
2022-08-10T16:53:51.921Z,54.5
2022-08-10T16:55:53.682Z,54.5
2022-08-10T16:57:55.264Z,54.2
2022-08-10T16:59:54.297Z,54.2
2022-08-10T17:01:54.100Z,53.3
2022-08-10T17:04:06.325Z,53.9
2022-08-10T17:06:05.247Z,53.2
2022-08-10T17:08:05.119Z,53.8
2022-08-10T17:09:55.658Z,53.8
2022-08-10T17:11:56.985Z,53.8
2022-08-10T17:13:56.068Z,53.8
2022-08-10T17:15:59.700Z,53.8
2022-08-10T17:17:57.630Z,48.3
2022-08-10T17:31:53.297Z,52.9
2022-08-10T17:31:55.075Z,48
2022-08-10T17:32:18.858Z,52.9
2022-08-10T17:32:50.906Z,47.4
2022-08-10T17:37:04.280Z,53.1
2022-08-10T17:38:18.827Z,48.4
2022-08-10T17:38:48.338Z,53.1
2022-08-10T17:40:05.921Z,53.1
2022-08-10T17:40:17.775Z,47.7
2022-08-10T17:55:09.555Z,54.5
2022-08-10T17:56:03.847Z,53.8
2022-08-10T17:58:09.840Z,55.3
2022-08-10T18:00:07.689Z,54.8
2022-08-10T18:02:07.642Z,53.7
2022-08-10T18:04:11.506Z,54.2
2022-08-10T18:06:07.079Z,54.9
2022-08-10T18:08:12.972Z,54.2
2022-08-10T18:10:10.587Z,54.2
2022-08-10T18:12:17.519Z,55.1
2022-08-10T18:14:08.951Z,54.8
2022-08-10T18:16:08.236Z,54.8
2022-08-10T18:18:14.746Z,54.6
2022-08-10T18:20:09.025Z,55.2
2022-08-10T18:22:10.347Z,55.2
2022-08-10T18:24:16.109Z,56.5
2022-08-10T18:26:12.947Z,57.1
2022-08-10T18:28:13.811Z,56.6
2022-08-10T18:30:10.860Z,56.6
2022-08-10T18:32:11.325Z,56.6
2022-08-10T18:34:14.495Z,57.2
2022-08-10T18:36:12.462Z,57.2
2022-08-10T18:38:12.893Z,57.9
2022-08-10T18:40:11.554Z,58.7
2022-08-10T18:42:14.251Z,59.2
2022-08-10T18:44:18.285Z,58.5
2022-08-10T18:46:16.213Z,58.5
2022-08-10T18:48:16.007Z,59.8
2022-08-10T18:50:16.518Z,59.8
2022-08-10T18:52:16.608Z,59.8
2022-08-10T18:54:31.381Z,59.6
2022-08-10T18:56:29.775Z,59.6
2022-08-10T18:58:32.765Z,60.3
2022-08-10T19:00:16.992Z,60.3
2022-08-10T19:02:36.813Z,60.3
2022-08-10T19:04:30.888Z,61.2
2022-08-10T19:06:36.207Z,61.2
2022-08-10T19:08:49.255Z,61
2022-08-10T19:10:33.689Z,61
2022-08-10T19:12:35.777Z,61
2022-08-10T19:14:21.808Z,61.9
2022-08-10T19:16:35.897Z,61.9
2022-08-10T19:18:29.966Z,61.9
2022-08-10T19:20:25.212Z,61.9
2022-08-10T19:22:25.091Z,62.4
2022-08-10T19:24:24.716Z,62.4
2022-08-10T19:26:44.270Z,63.1
2022-08-10T19:28:29.096Z,63.1
2022-08-10T19:30:19.669Z,63.1
2022-08-10T19:32:28.515Z,63.1
2022-08-10T19:34:34.083Z,63.1
2022-08-10T19:36:33.595Z,63.1
2022-08-10T19:38:33.149Z,64.5
2022-08-10T19:40:44.307Z,63.9
2022-08-10T19:42:31.444Z,64.9
2022-08-10T19:44:33.511Z,65.4
2022-08-10T19:46:30.998Z,65.4
2022-08-10T19:48:33.479Z,65.4
2022-08-10T19:50:27.484Z,65.4
2022-08-10T19:52:31.653Z,64.9
2022-08-10T19:54:30.426Z,65.4
2022-08-10T19:56:34.433Z,66.7
2022-08-10T19:58:31.458Z,67.1
2022-08-10T20:00:32.435Z,67.1
2022-08-10T20:02:28.521Z,70
2022-08-10T20:04:31.990Z,68.5
2022-08-10T20:06:43.153Z,69.5
2022-08-10T20:08:32.617Z,68.7
2022-08-10T20:10:36.486Z,69.6
2022-08-10T20:12:33.835Z,71.3
2022-08-10T20:14:32.920Z,70.9
2022-08-10T20:16:29.587Z,70.9
2022-08-10T20:18:31.990Z,70.9
2022-08-10T20:20:33.872Z,72.1
2022-08-10T20:22:31.485Z,71.3
2022-08-10T20:24:32.714Z,71.9
2022-08-10T20:26:32.531Z,72.1
2022-08-10T20:28:39.518Z,72.8
2022-08-10T20:30:32.490Z,73.4
2022-08-10T20:32:34.226Z,72.5
2022-08-10T20:34:42.026Z,73.1
2022-08-10T20:36:32.185Z,73.1
2022-08-10T20:38:37.787Z,73.1
2022-08-10T20:40:38.166Z,73.7
2022-08-10T20:42:36.492Z,74
2022-08-10T20:44:40.090Z,74.5
2022-08-10T20:46:37.089Z,75.1
2022-08-10T20:48:37.235Z,74.3
2022-08-10T20:50:36.192Z,74.2
2022-08-10T20:52:34.562Z,75.2
2022-08-10T20:54:37.154Z,76.3
2022-08-10T20:56:41.817Z,75.9
2022-08-10T20:58:53.021Z,76.8
2022-08-10T21:00:45.695Z,75.7
2022-08-10T21:02:51.720Z,76.5
2022-08-10T21:04:47.157Z,76.1
2022-08-10T21:06:50.578Z,76.1
2022-08-10T21:08:45.855Z,76.1
2022-08-10T21:10:47.907Z,76.9
2022-08-10T21:13:07.366Z,77
2022-08-10T21:14:45.755Z,77
2022-08-10T21:17:04.069Z,77.7
2022-08-10T21:18:46.825Z,77.7
2022-08-10T21:20:45.151Z,77.7
2022-08-10T21:22:40.185Z,77.7
2022-08-10T21:24:43.221Z,77.8
2022-08-10T21:26:49.125Z,77.8
2022-08-10T21:29:06.249Z,77.8
2022-08-10T21:30:51.044Z,78.9
2022-08-10T21:32:43.709Z,78.9
2022-08-10T21:34:53.031Z,78.7
2022-08-10T21:36:43.007Z,79.7
2022-08-10T21:38:47.805Z,79.7
2022-08-10T21:41:17.070Z,80.2
2022-08-10T21:42:46.371Z,80.2
2022-08-10T21:44:52.142Z,80.7
2022-08-10T21:46:55.356Z,80.7
2022-08-10T21:48:45.363Z,80.2
2022-08-10T21:50:43.292Z,81.2
2022-08-10T21:52:53.822Z,80
2022-08-10T21:54:47.317Z,81
2022-08-10T21:56:50.372Z,81
2022-08-10T21:58:50.357Z,80.5
2022-08-10T22:00:49.764Z,80.5
2022-08-10T22:02:50.274Z,81
2022-08-10T22:04:44.697Z,81.7
2022-08-10T22:08:44.749Z,81.8
2022-08-10T22:10:47.184Z,82.7
2022-08-10T22:12:46.921Z,82.5
2022-08-10T22:14:46.494Z,83.4
2022-08-10T22:16:48.818Z,81.5
2022-08-10T22:18:58.851Z,81.5
2022-08-10T22:20:43.671Z,82
2022-08-10T22:22:56.267Z,82.7
2022-08-10T22:25:00.586Z,81.8
2022-08-10T22:27:00.684Z,83.1
2022-08-10T22:28:51.991Z,82.9
2022-08-10T22:31:14.755Z,82.9
2022-08-10T22:31:25.782Z,81.8
2022-08-10T22:32:58.620Z,82.9
2022-08-10T22:35:02.143Z,83.6
2022-08-10T22:37:00.002Z,82.9
2022-08-10T22:38:58.125Z,82.9
2022-08-10T22:40:46.374Z,84.1
2022-08-10T22:42:58.912Z,83
2022-08-10T22:44:49.062Z,84.1
2022-08-10T22:46:47.455Z,83.5
2022-08-10T22:48:47.692Z,83.5
2022-08-10T22:50:46.773Z,85.1
2022-08-10T22:53:02.719Z,83.5
2022-08-10T22:54:52.921Z,83.8
2022-08-10T22:56:47.436Z,84.5
2022-08-10T22:58:46.957Z,83.6
2022-08-10T23:01:00.961Z,83.7
2022-08-10T23:02:54.372Z,84
2022-08-10T23:04:51.983Z,84
2022-08-10T23:06:55.554Z,83.9
2022-08-10T23:08:52.204Z,83.9
2022-08-10T23:10:49.219Z,84.6
2022-08-10T23:12:54.327Z,84.6
2022-08-10T23:14:59.982Z,84.6
2022-08-10T23:16:52.202Z,84
2022-08-10T23:18:52.049Z,84
2022-08-10T23:20:51.599Z,84
2022-08-10T23:22:55.627Z,84
2022-08-10T23:24:54.382Z,84.3
2022-08-10T23:26:52.556Z,84.8
2022-08-10T23:28:59.959Z,84.8
2022-08-10T23:30:51.814Z,83.7
2022-08-10T23:32:58.096Z,84.3
2022-08-10T23:36:29.660Z,83.6
2022-08-10T23:36:53.400Z,84.2
2022-08-10T23:38:57.260Z,84
2022-08-10T23:40:55.197Z,85.2
2022-08-10T23:42:54.960Z,85.2
2022-08-10T23:44:55.248Z,83.9
2022-08-10T23:46:53.418Z,84.2
2022-08-10T23:48:55.583Z,84.7
2022-08-10T23:50:59.528Z,84.4
2022-08-10T23:52:57.780Z,85.3
2022-08-10T23:54:56.834Z,84.3
2022-08-10T23:57:01.496Z,84.3
2022-08-10T23:58:56.335Z,85.9
